sensor_id;sensor_type;location;lat;lon;timestamp;temperature;humidity
22071;DHT22;11200;51.488;6.668;2022-10-16T00:00:35;13.60;99.90
22071;DHT22;11200;51.488;6.668;2022-10-16T00:03:02;14.20;99.90
22071;DHT22;11200;51.488;6.668;2022-10-16T00:05:28;14.30;99.90
22071;DHT22;11200;51.488;6.668;2022-10-16T00:07:53;13.60;99.90
22071;DHT22;11200;51.488;6.668;2022-10-16T00:10:19;13.50;99.90
22071;DHT22;11200;51.488;6.668;2022-10-16T00:12:44;13.70;99.90
22071;DHT22;11200;51.488;6.668;2022-10-16T00:15:10;13.50;99.90
22071;DHT22;11200;51.488;6.668;2022-10-16T00:17:35;13.50;99.90
22071;DHT22;11200;51.488;6.668;2022-10-16T00:20:01;13.40;99.90
22071;DHT22;11200;51.488;6.668;2022-10-16T00:22:27;13.50;99.90
22071;DHT22;11200;51.488;6.668;2022-10-16T00:24:54;13.50;99.90
22071;DHT22;11200;51.488;6.668;2022-10-16T00:27:19;13.60;99.90
22071;DHT22;11200;51.488;6.668;2022-10-16T00:29:45;13.50;99.90
22071;DHT22;11200;51.488;6.668;2022-10-16T00:32:14;13.60;99.90
22071;DHT22;11200;51.488;6.668;2022-10-16T00:34:40;13.40;99.90
22071;DHT22;11200;51.488;6.668;2022-10-16T00:37:05;13.50;99.90
22071;DHT22;11200;51.488;6.668;2022-10-16T00:39:31;14.30;99.90
22071;DHT22;11200;51.488;6.668;2022-10-16T00:41:56;13.50;99.90
22071;DHT22;11200;51.488;6.668;2022-10-16T00:47:17;13.10;99.90
22071;DHT22;11200;51.488;6.668;2022-10-16T00:49:43;13.30;99.90
22071;DHT22;11200;51.488;6.668;2022-10-16T00:52:10;13.80;99.90
22071;DHT22;11200;51.488;6.668;2022-10-16T00:54:35;13.30;99.90
22071;DHT22;11200;51.488;6.668;2022-10-16T00:57:04;13.30;99.90
22071;DHT22;11200;51.488;6.668;2022-10-16T00:59:33;13.40;99.90
22071;DHT22;11200;51.488;6.668;2022-10-16T01:02:00;13.30;99.90
22071;DHT22;11200;51.488;6.668;2022-10-16T01:04:26;13.30;99.90
22071;DHT22;11200;51.488;6.668;2022-10-16T01:09:50;13.30;99.90
22071;DHT22;11200;51.488;6.668;2022-10-16T01:12:32;13.30;99.90
22071;DHT22;11200;51.488;6.668;2022-10-16T01:15:08;13.30;99.90
22071;DHT22;11200;51.488;6.668;2022-10-16T01:18:05;13.30;99.90
22071;DHT22;11200;51.488;6.668;2022-10-16T01:20:33;13.20;99.90
22071;DHT22;11200;51.488;6.668;2022-10-16T01:23:29;13.20;99.90
22071;DHT22;11200;51.488;6.668;2022-10-16T01:26:12;13.30;99.90
22071;DHT22;11200;51.488;6.668;2022-10-16T01:31:18;13.20;99.90
22071;DHT22;11200;51.488;6.668;2022-10-16T01:34:36;13.20;99.90
22071;DHT22;11200;51.488;6.668;2022-10-16T01:36:47;13.20;99.90
22071;DHT22;11200;51.488;6.668;2022-10-16T01:39:14;13.10;99.90
22071;DHT22;11200;51.488;6.668;2022-10-16T01:41:48;13.10;99.90
22071;DHT22;11200;51.488;6.668;2022-10-16T01:44:22;13.10;99.90
22071;DHT22;11200;51.488;6.668;2022-10-16T01:46:52;13.30;99.90
22071;DHT22;11200;51.488;6.668;2022-10-16T01:49:19;13.50;99.90
22071;DHT22;11200;51.488;6.668;2022-10-16T01:51:48;13.20;99.90
22071;DHT22;11200;51.488;6.668;2022-10-16T01:54:17;13.20;99.90
22071;DHT22;11200;51.488;6.668;2022-10-16T01:56:46;13.20;99.90
22071;DHT22;11200;51.488;6.668;2022-10-16T01:59:15;13.20;99.90
22071;DHT22;11200;51.488;6.668;2022-10-16T02:01:50;13.10;99.90
22071;DHT22;11200;51.488;6.668;2022-10-16T02:04:42;13.10;99.90
22071;DHT22;11200;51.488;6.668;2022-10-16T02:07:06;13.20;99.90
22071;DHT22;11200;51.488;6.668;2022-10-16T02:09:35;14.00;99.90
22071;DHT22;11200;51.488;6.668;2022-10-16T02:12:12;13.10;99.90
22071;DHT22;11200;51.488;6.668;2022-10-16T02:14:40;13.10;99.90
22071;DHT22;11200;51.488;6.668;2022-10-16T02:17:14;13.10;99.90
22071;DHT22;11200;51.488;6.668;2022-10-16T02:19:41;13.10;99.90
22071;DHT22;11200;51.488;6.668;2022-10-16T02:22:10;13.10;99.90
22071;DHT22;11200;51.488;6.668;2022-10-16T02:27:36;13.00;99.90
22071;DHT22;11200;51.488;6.668;2022-10-16T02:32:42;13.00;99.90
22071;DHT22;11200;51.488;6.668;2022-10-16T02:35:10;13.70;99.90
22071;DHT22;11200;51.488;6.668;2022-10-16T02:37:37;13.00;99.90
22071;DHT22;11200;51.488;6.668;2022-10-16T02:40:04;13.30;99.90
22071;DHT22;11200;51.488;6.668;2022-10-16T02:42:35;13.00;99.90
22071;DHT22;11200;51.488;6.668;2022-10-16T02:45:01;13.50;99.90
22071;DHT22;11200;51.488;6.668;2022-10-16T02:47:26;13.10;99.90
22071;DHT22;11200;51.488;6.668;2022-10-16T02:49:52;13.00;99.90
22071;DHT22;11200;51.488;6.668;2022-10-16T02:52:17;13.00;99.90
22071;DHT22;11200;51.488;6.668;2022-10-16T02:54:43;12.90;99.90
22071;DHT22;11200;51.488;6.668;2022-10-16T02:57:09;12.90;99.90
22071;DHT22;11200;51.488;6.668;2022-10-16T02:59:34;13.60;99.90
22071;DHT22;11200;51.488;6.668;2022-10-16T03:02:00;12.90;99.90
22071;DHT22;11200;51.488;6.668;2022-10-16T03:04:25;12.90;99.90
22071;DHT22;11200;51.488;6.668;2022-10-16T03:06:51;13.50;99.90
22071;DHT22;11200;51.488;6.668;2022-10-16T03:09:16;12.90;99.90
22071;DHT22;11200;51.488;6.668;2022-10-16T03:11:42;12.90;99.90
22071;DHT22;11200;51.488;6.668;2022-10-16T03:14:07;13.60;99.90
22071;DHT22;11200;51.488;6.668;2022-10-16T03:16:33;12.90;99.90
22071;DHT22;11200;51.488;6.668;2022-10-16T03:18:58;14.20;99.90
22071;DHT22;11200;51.488;6.668;2022-10-16T03:21:24;13.60;99.90
22071;DHT22;11200;51.488;6.668;2022-10-16T03:23:50;12.90;99.90
22071;DHT22;11200;51.488;6.668;2022-10-16T03:26:15;12.60;99.90
22071;DHT22;11200;51.488;6.668;2022-10-16T03:28:41;12.80;99.90
22071;DHT22;11200;51.488;6.668;2022-10-16T03:31:06;12.80;99.90
22071;DHT22;11200;51.488;6.668;2022-10-16T03:33:33;12.90;99.90
22071;DHT22;11200;51.488;6.668;2022-10-16T03:35:59;13.60;99.90
22071;DHT22;11200;51.488;6.668;2022-10-16T03:38:24;12.90;99.90
22071;DHT22;11200;51.488;6.668;2022-10-16T03:40:50;13.30;99.90
22071;DHT22;11200;51.488;6.668;2022-10-16T03:43:15;13.30;99.90
22071;DHT22;11200;51.488;6.668;2022-10-16T03:45:41;12.90;99.90
22071;DHT22;11200;51.488;6.668;2022-10-16T03:48:07;13.10;99.90
22071;DHT22;11200;51.488;6.668;2022-10-16T03:50:32;12.80;99.90
22071;DHT22;11200;51.488;6.668;2022-10-16T03:52:58;12.90;99.90
22071;DHT22;11200;51.488;6.668;2022-10-16T03:55:23;12.90;99.90
22071;DHT22;11200;51.488;6.668;2022-10-16T03:57:49;13.50;99.90
22071;DHT22;11200;51.488;6.668;2022-10-16T04:00:15;12.80;99.90
22071;DHT22;11200;51.488;6.668;2022-10-16T04:02:40;13.10;99.90
22071;DHT22;11200;51.488;6.668;2022-10-16T04:05:06;13.70;99.90
22071;DHT22;11200;51.488;6.668;2022-10-16T04:07:32;12.90;99.90
22071;DHT22;11200;51.488;6.668;2022-10-16T04:09:58;13.00;99.90
22071;DHT22;11200;51.488;6.668;2022-10-16T04:12:25;12.60;99.90
22071;DHT22;11200;51.488;6.668;2022-10-16T04:14:50;12.80;99.90
22071;DHT22;11200;51.488;6.668;2022-10-16T04:17:16;13.60;99.90
22071;DHT22;11200;51.488;6.668;2022-10-16T04:19:41;14.00;99.90
22071;DHT22;11200;51.488;6.668;2022-10-16T04:22:07;13.30;99.90
22071;DHT22;11200;51.488;6.668;2022-10-16T04:24:33;12.90;99.90
22071;DHT22;11200;51.488;6.668;2022-10-16T04:26:59;13.00;99.90
22071;DHT22;11200;51.488;6.668;2022-10-16T04:29:24;13.00;99.90
22071;DHT22;11200;51.488;6.668;2022-10-16T04:31:50;12.90;99.90
22071;DHT22;11200;51.488;6.668;2022-10-16T04:34:15;12.60;99.90
22071;DHT22;11200;51.488;6.668;2022-10-16T04:36:41;12.80;99.90
22071;DHT22;11200;51.488;6.668;2022-10-16T04:39:06;13.10;99.90
22071;DHT22;11200;51.488;6.668;2022-10-16T04:41:32;13.00;99.90
22071;DHT22;11200;51.488;6.668;2022-10-16T04:43:57;12.80;99.90
22071;DHT22;11200;51.488;6.668;2022-10-16T04:46:23;12.80;99.90
22071;DHT22;11200;51.488;6.668;2022-10-16T04:48:49;12.80;99.90
22071;DHT22;11200;51.488;6.668;2022-10-16T04:51:14;12.80;99.90
22071;DHT22;11200;51.488;6.668;2022-10-16T04:53:40;12.80;99.90
22071;DHT22;11200;51.488;6.668;2022-10-16T04:56:05;13.40;99.90
22071;DHT22;11200;51.488;6.668;2022-10-16T04:58:31;12.90;99.90
22071;DHT22;11200;51.488;6.668;2022-10-16T05:00:57;12.80;99.90
22071;DHT22;11200;51.488;6.668;2022-10-16T05:03:22;12.80;99.90
22071;DHT22;11200;51.488;6.668;2022-10-16T05:05:48;13.20;99.90
22071;DHT22;11200;51.488;6.668;2022-10-16T05:08:14;12.70;99.90
22071;DHT22;11200;51.488;6.668;2022-10-16T05:10:42;12.90;99.90
22071;DHT22;11200;51.488;6.668;2022-10-16T05:13:08;12.80;99.90
22071;DHT22;11200;51.488;6.668;2022-10-16T05:15:33;13.40;99.90
22071;DHT22;11200;51.488;6.668;2022-10-16T05:17:59;12.90;99.90
22071;DHT22;11200;51.488;6.668;2022-10-16T05:20:25;13.20;99.90
22071;DHT22;11200;51.488;6.668;2022-10-16T05:22:51;13.80;99.90
22071;DHT22;11200;51.488;6.668;2022-10-16T05:25:16;13.00;99.90
22071;DHT22;11200;51.488;6.668;2022-10-16T05:27:42;13.50;99.90
22071;DHT22;11200;51.488;6.668;2022-10-16T05:30:08;12.90;99.90
22071;DHT22;11200;51.488;6.668;2022-10-16T05:32:34;12.90;99.90
22071;DHT22;11200;51.488;6.668;2022-10-16T05:34:59;13.00;99.90
22071;DHT22;11200;51.488;6.668;2022-10-16T05:37:27;12.90;99.90
22071;DHT22;11200;51.488;6.668;2022-10-16T05:39:53;13.20;99.90
22071;DHT22;11200;51.488;6.668;2022-10-16T05:42:18;12.80;99.90
22071;DHT22;11200;51.488;6.668;2022-10-16T05:44:44;12.80;99.90
22071;DHT22;11200;51.488;6.668;2022-10-16T05:47:11;12.50;99.90
22071;DHT22;11200;51.488;6.668;2022-10-16T05:49:37;12.90;99.90
22071;DHT22;11200;51.488;6.668;2022-10-16T05:52:03;12.80;99.90
22071;DHT22;11200;51.488;6.668;2022-10-16T05:54:29;12.80;99.90
22071;DHT22;11200;51.488;6.668;2022-10-16T05:56:54;13.00;99.90
22071;DHT22;11200;51.488;6.668;2022-10-16T05:59:20;13.20;99.90
22071;DHT22;11200;51.488;6.668;2022-10-16T06:01:45;13.70;99.90
22071;DHT22;11200;51.488;6.668;2022-10-16T06:04:11;12.80;99.90
22071;DHT22;11200;51.488;6.668;2022-10-16T06:06:38;13.70;99.90
22071;DHT22;11200;51.488;6.668;2022-10-16T06:09:04;12.80;99.90
22071;DHT22;11200;51.488;6.668;2022-10-16T06:11:31;13.30;99.90
22071;DHT22;11200;51.488;6.668;2022-10-16T06:14:00;12.70;99.90
22071;DHT22;11200;51.488;6.668;2022-10-16T06:16:28;12.80;99.90
22071;DHT22;11200;51.488;6.668;2022-10-16T06:18:55;12.80;99.90
22071;DHT22;11200;51.488;6.668;2022-10-16T06:21:23;12.80;99.90
22071;DHT22;11200;51.488;6.668;2022-10-16T06:23:50;12.90;99.90
22071;DHT22;11200;51.488;6.668;2022-10-16T06:26:19;13.60;99.90
22071;DHT22;11200;51.488;6.668;2022-10-16T06:28:45;12.80;99.90
22071;DHT22;11200;51.488;6.668;2022-10-16T06:31:12;13.40;99.90
22071;DHT22;11200;51.488;6.668;2022-10-16T06:33:38;12.70;99.90
22071;DHT22;11200;51.488;6.668;2022-10-16T06:36:10;12.70;99.90
22071;DHT22;11200;51.488;6.668;2022-10-16T06:38:37;13.60;99.90
22071;DHT22;11200;51.488;6.668;2022-10-16T06:41:03;13.60;99.90
22071;DHT22;11200;51.488;6.668;2022-10-16T06:43:29;12.80;99.90
22071;DHT22;11200;51.488;6.668;2022-10-16T06:46:01;12.90;99.90
22071;DHT22;11200;51.488;6.668;2022-10-16T06:48:28;12.80;99.90
22071;DHT22;11200;51.488;6.668;2022-10-16T06:53:38;12.80;99.90
22071;DHT22;11200;51.488;6.668;2022-10-16T06:56:18;12.80;99.90
22071;DHT22;11200;51.488;6.668;2022-10-16T06:58:46;13.80;99.90
22071;DHT22;11200;51.488;6.668;2022-10-16T07:01:12;13.20;99.90
22071;DHT22;11200;51.488;6.668;2022-10-16T07:03:39;12.90;99.90
22071;DHT22;11200;51.488;6.668;2022-10-16T07:06:06;13.10;99.90
22071;DHT22;11200;51.488;6.668;2022-10-16T07:08:33;13.10;99.90
22071;DHT22;11200;51.488;6.668;2022-10-16T07:11:04;13.00;99.90
22071;DHT22;11200;51.488;6.668;2022-10-16T07:13:36;12.80;99.90
22071;DHT22;11200;51.488;6.668;2022-10-16T07:16:14;12.80;99.90
22071;DHT22;11200;51.488;6.668;2022-10-16T07:18:40;12.80;99.90
22071;DHT22;11200;51.488;6.668;2022-10-16T07:21:10;12.70;99.90
22071;DHT22;11200;51.488;6.668;2022-10-16T07:23:36;13.90;99.90
22071;DHT22;11200;51.488;6.668;2022-10-16T07:26:03;13.10;99.90
22071;DHT22;11200;51.488;6.668;2022-10-16T07:28:29;12.80;99.90
22071;DHT22;11200;51.488;6.668;2022-10-16T07:30:55;12.90;99.90
22071;DHT22;11200;51.488;6.668;2022-10-16T07:33:21;12.70;99.90
22071;DHT22;11200;51.488;6.668;2022-10-16T07:35:49;12.80;99.90
22071;DHT22;11200;51.488;6.668;2022-10-16T07:38:15;13.90;99.90
22071;DHT22;11200;51.488;6.668;2022-10-16T07:40:40;13.00;99.90
22071;DHT22;11200;51.488;6.668;2022-10-16T07:43:06;13.20;99.90
22071;DHT22;11200;51.488;6.668;2022-10-16T07:45:31;13.10;99.90
22071;DHT22;11200;51.488;6.668;2022-10-16T07:47:57;13.00;99.90
22071;DHT22;11200;51.488;6.668;2022-10-16T07:50:23;14.30;99.90
22071;DHT22;11200;51.488;6.668;2022-10-16T07:52:48;12.80;99.90
22071;DHT22;11200;51.488;6.668;2022-10-16T07:55:14;12.90;99.90
22071;DHT22;11200;51.488;6.668;2022-10-16T07:57:39;13.70;99.90
22071;DHT22;11200;51.488;6.668;2022-10-16T08:00:05;12.90;99.90
22071;DHT22;11200;51.488;6.668;2022-10-16T08:02:40;12.90;99.90
22071;DHT22;11200;51.488;6.668;2022-10-16T08:05:06;13.30;99.90
22071;DHT22;11200;51.488;6.668;2022-10-16T08:07:32;13.50;99.90
22071;DHT22;11200;51.488;6.668;2022-10-16T08:09:58;13.70;99.90
22071;DHT22;11200;51.488;6.668;2022-10-16T08:12:25;13.10;99.90
22071;DHT22;11200;51.488;6.668;2022-10-16T08:14:50;13.10;99.90
22071;DHT22;11200;51.488;6.668;2022-10-16T08:17:16;13.20;99.90
22071;DHT22;11200;51.488;6.668;2022-10-16T08:19:46;13.70;99.90
22071;DHT22;11200;51.488;6.668;2022-10-16T08:22:13;14.30;99.90
22071;DHT22;11200;51.488;6.668;2022-10-16T08:24:38;13.90;99.90
22071;DHT22;11200;51.488;6.668;2022-10-16T08:27:04;14.30;99.90
22071;DHT22;11200;51.488;6.668;2022-10-16T08:29:30;15.10;99.90
22071;DHT22;11200;51.488;6.668;2022-10-16T08:31:56;15.10;99.90
22071;DHT22;11200;51.488;6.668;2022-10-16T08:34:21;15.50;99.90
22071;DHT22;11200;51.488;6.668;2022-10-16T08:36:47;15.90;99.90
22071;DHT22;11200;51.488;6.668;2022-10-16T08:39:12;16.30;99.90
22071;DHT22;11200;51.488;6.668;2022-10-16T08:44:55;17.00;99.90
22071;DHT22;11200;51.488;6.668;2022-10-16T08:48:17;17.30;99.90
22071;DHT22;11200;51.488;6.668;2022-10-16T08:50:44;17.20;99.90
22071;DHT22;11200;51.488;6.668;2022-10-16T08:53:28;18.00;99.90
22071;DHT22;11200;51.488;6.668;2022-10-16T08:55:54;18.00;99.90
22071;DHT22;11200;51.488;6.668;2022-10-16T08:58:27;18.20;99.90
22071;DHT22;11200;51.488;6.668;2022-10-16T09:00:59;18.20;99.90
22071;DHT22;11200;51.488;6.668;2022-10-16T09:03:43;18.30;99.90
22071;DHT22;11200;51.488;6.668;2022-10-16T09:09:19;18.80;99.90
22071;DHT22;11200;51.488;6.668;2022-10-16T09:12:10;18.90;99.90
22071;DHT22;11200;51.488;6.668;2022-10-16T09:20:24;19.50;99.90
22071;DHT22;11200;51.488;6.668;2022-10-16T09:25:30;19.50;99.90
22071;DHT22;11200;51.488;6.668;2022-10-16T09:27:56;19.40;99.90
22071;DHT22;11200;51.488;6.668;2022-10-16T09:30:22;19.30;99.90
22071;DHT22;11200;51.488;6.668;2022-10-16T09:32:51;19.30;99.90
22071;DHT22;11200;51.488;6.668;2022-10-16T09:35:32;19.30;99.90
22071;DHT22;11200;51.488;6.668;2022-10-16T09:38:00;19.30;99.90
22071;DHT22;11200;51.488;6.668;2022-10-16T09:40:30;19.50;99.90
22071;DHT22;11200;51.488;6.668;2022-10-16T09:43:03;19.70;99.90
22071;DHT22;11200;51.488;6.668;2022-10-16T09:45:31;19.90;99.90
22071;DHT22;11200;51.488;6.668;2022-10-16T09:48:11;20.20;99.90
22071;DHT22;11200;51.488;6.668;2022-10-16T09:50:40;20.50;99.90
22071;DHT22;11200;51.488;6.668;2022-10-16T09:53:15;20.70;99.90
22071;DHT22;11200;51.488;6.668;2022-10-16T09:55:51;21.00;99.90
22071;DHT22;11200;51.488;6.668;2022-10-16T09:58:23;21.40;99.90
22071;DHT22;11200;51.488;6.668;2022-10-16T10:01:02;21.70;99.90
22071;DHT22;11200;51.488;6.668;2022-10-16T10:09:05;22.50;99.90
22071;DHT22;11200;51.488;6.668;2022-10-16T10:11:41;22.80;99.90
22071;DHT22;11200;51.488;6.668;2022-10-16T10:16:45;23.30;99.90
22071;DHT22;11200;51.488;6.668;2022-10-16T10:19:39;23.60;99.90
22071;DHT22;11200;51.488;6.668;2022-10-16T10:22:26;23.80;99.90
22071;DHT22;11200;51.488;6.668;2022-10-16T10:25:19;23.70;99.90
22071;DHT22;11200;51.488;6.668;2022-10-16T10:35:54;24.60;99.90
22071;DHT22;11200;51.488;6.668;2022-10-16T10:41:27;24.90;99.90
22071;DHT22;11200;51.488;6.668;2022-10-16T10:49:43;25.20;99.90
22071;DHT22;11200;51.488;6.668;2022-10-16T10:55:18;25.20;99.90
22071;DHT22;11200;51.488;6.668;2022-10-16T10:58:10;25.50;99.90
22071;DHT22;11200;51.488;6.668;2022-10-16T11:06:21;25.30;99.90
22071;DHT22;11200;51.488;6.668;2022-10-16T11:09:13;25.20;99.90
22071;DHT22;11200;51.488;6.668;2022-10-16T11:12:11;24.60;99.90
22071;DHT22;11200;51.488;6.668;2022-10-16T11:14:50;25.00;99.90
22071;DHT22;11200;51.488;6.668;2022-10-16T11:17:27;24.90;99.90
22071;DHT22;11200;51.488;6.668;2022-10-16T11:20:02;24.80;99.90
22071;DHT22;11200;51.488;6.668;2022-10-16T11:22:50;24.70;99.90
22071;DHT22;11200;51.488;6.668;2022-10-16T11:27:52;24.60;99.90
22071;DHT22;11200;51.488;6.668;2022-10-16T11:30:23;24.60;99.90
22071;DHT22;11200;51.488;6.668;2022-10-16T11:33:02;24.60;99.90
22071;DHT22;11200;51.488;6.668;2022-10-16T11:38:30;24.70;99.90
22071;DHT22;11200;51.488;6.668;2022-10-16T11:41:28;24.70;99.90
22071;DHT22;11200;51.488;6.668;2022-10-16T11:44:18;24.70;99.90
22071;DHT22;11200;51.488;6.668;2022-10-16T11:46:58;24.60;99.90
22071;DHT22;11200;51.488;6.668;2022-10-16T11:49:31;24.80;99.90
22071;DHT22;11200;51.488;6.668;2022-10-16T11:52:36;24.80;99.90
22071;DHT22;11200;51.488;6.668;2022-10-16T11:55:05;24.90;99.90
22071;DHT22;11200;51.488;6.668;2022-10-16T11:57:44;24.90;99.90
22071;DHT22;11200;51.488;6.668;2022-10-16T12:03:30;25.10;99.90
22071;DHT22;11200;51.488;6.668;2022-10-16T12:08:53;25.10;99.90
22071;DHT22;11200;51.488;6.668;2022-10-16T12:17:04;25.10;99.90
22071;DHT22;11200;51.488;6.668;2022-10-16T12:19:58;25.10;99.90
22071;DHT22;11200;51.488;6.668;2022-10-16T12:22:28;25.00;99.90
22071;DHT22;11200;51.488;6.668;2022-10-16T12:24:54;25.00;99.90
22071;DHT22;11200;51.488;6.668;2022-10-16T12:27:28;24.90;99.90
22071;DHT22;11200;51.488;6.668;2022-10-16T12:29:57;24.90;99.90
22071;DHT22;11200;51.488;6.668;2022-10-16T12:34:58;24.90;99.90
22071;DHT22;11200;51.488;6.668;2022-10-16T12:37:26;24.80;99.90
22071;DHT22;11200;51.488;6.668;2022-10-16T12:39:54;24.70;99.90
22071;DHT22;11200;51.488;6.668;2022-10-16T12:42:23;24.60;99.90
22071;DHT22;11200;51.488;6.668;2022-10-16T12:48:26;24.00;99.90
22071;DHT22;11200;51.488;6.668;2022-10-16T12:50:57;24.20;99.90
22071;DHT22;11200;51.488;6.668;2022-10-16T12:53:37;24.70;99.90
22071;DHT22;11200;51.488;6.668;2022-10-16T12:56:27;24.00;99.90
22071;DHT22;11200;51.488;6.668;2022-10-16T12:59:28;23.80;99.90
22071;DHT22;11200;51.488;6.668;2022-10-16T13:05:15;23.50;99.90
22071;DHT22;11200;51.488;6.668;2022-10-16T13:08:22;23.40;99.90
22071;DHT22;11200;51.488;6.668;2022-10-16T13:19:25;22.80;99.90
22071;DHT22;11200;51.488;6.668;2022-10-16T13:21:56;22.70;99.90
22071;DHT22;11200;51.488;6.668;2022-10-16T13:27:06;22.50;99.90
22071;DHT22;11200;51.488;6.668;2022-10-16T13:29:34;22.40;99.90
22071;DHT22;11200;51.488;6.668;2022-10-16T13:32:14;22.30;99.90
22071;DHT22;11200;51.488;6.668;2022-10-16T13:34:48;22.10;99.90
22071;DHT22;11200;51.488;6.668;2022-10-16T13:37:23;22.20;99.90
22071;DHT22;11200;51.488;6.668;2022-10-16T13:39:49;21.90;99.90
22071;DHT22;11200;51.488;6.668;2022-10-16T13:42:27;21.80;99.90
22071;DHT22;11200;51.488;6.668;2022-10-16T13:44:59;21.60;99.90
22071;DHT22;11200;51.488;6.668;2022-10-16T13:47:27;21.70;99.90
22071;DHT22;11200;51.488;6.668;2022-10-16T13:50:19;21.60;99.90
22071;DHT22;11200;51.488;6.668;2022-10-16T13:53:10;20.80;99.90
22071;DHT22;11200;51.488;6.668;2022-10-16T13:55:40;21.50;99.90
22071;DHT22;11200;51.488;6.668;2022-10-16T13:58:13;21.40;99.90
22071;DHT22;11200;51.488;6.668;2022-10-16T14:00:51;21.30;99.90
22071;DHT22;11200;51.488;6.668;2022-10-16T14:03:19;21.30;99.90
22071;DHT22;11200;51.488;6.668;2022-10-16T14:05:54;21.20;99.90
22071;DHT22;11200;51.488;6.668;2022-10-16T14:08:20;21.20;99.90
22071;DHT22;11200;51.488;6.668;2022-10-16T14:10:51;21.10;99.90
22071;DHT22;11200;51.488;6.668;2022-10-16T14:13:25;21.10;99.90
22071;DHT22;11200;51.488;6.668;2022-10-16T14:15:52;21.00;99.90
22071;DHT22;11200;51.488;6.668;2022-10-16T14:18:25;21.00;99.90
22071;DHT22;11200;51.488;6.668;2022-10-16T14:20:52;20.90;99.90
22071;DHT22;11200;51.488;6.668;2022-10-16T14:23:23;20.90;99.90
22071;DHT22;11200;51.488;6.668;2022-10-16T14:25:53;20.80;99.90
22071;DHT22;11200;51.488;6.668;2022-10-16T14:28:23;20.80;99.90
22071;DHT22;11200;51.488;6.668;2022-10-16T14:30:59;20.70;99.90
22071;DHT22;11200;51.488;6.668;2022-10-16T14:33:33;20.70;99.90
22071;DHT22;11200;51.488;6.668;2022-10-16T14:36:10;20.60;99.90
22071;DHT22;11200;51.488;6.668;2022-10-16T14:38:42;20.60;99.90
22071;DHT22;11200;51.488;6.668;2022-10-16T14:41:08;20.60;99.90
22071;DHT22;11200;51.488;6.668;2022-10-16T14:43:36;20.60;99.90
22071;DHT22;11200;51.488;6.668;2022-10-16T14:46:11;20.40;99.90
22071;DHT22;11200;51.488;6.668;2022-10-16T14:48:42;20.50;99.90
22071;DHT22;11200;51.488;6.668;2022-10-16T14:51:18;20.50;99.90
22071;DHT22;11200;51.488;6.668;2022-10-16T14:53:44;20.40;99.90
22071;DHT22;11200;51.488;6.668;2022-10-16T14:56:20;20.30;99.90
22071;DHT22;11200;51.488;6.668;2022-10-16T14:58:53;20.30;99.90
22071;DHT22;11200;51.488;6.668;2022-10-16T15:01:19;20.20;99.90
22071;DHT22;11200;51.488;6.668;2022-10-16T15:03:45;20.20;99.90
22071;DHT22;11200;51.488;6.668;2022-10-16T15:06:15;20.20;99.90
22071;DHT22;11200;51.488;6.668;2022-10-16T15:08:43;20.10;99.90
22071;DHT22;11200;51.488;6.668;2022-10-16T15:11:13;20.10;99.90
22071;DHT22;11200;51.488;6.668;2022-10-16T15:13:41;20.10;99.90
22071;DHT22;11200;51.488;6.668;2022-10-16T15:16:15;20.00;99.90
22071;DHT22;11200;51.488;6.668;2022-10-16T15:18:41;20.00;99.90
22071;DHT22;11200;51.488;6.668;2022-10-16T15:21:07;20.00;99.90
22071;DHT22;11200;51.488;6.668;2022-10-16T15:23:35;19.90;99.90
22071;DHT22;11200;51.488;6.668;2022-10-16T15:26:18;19.90;99.90
22071;DHT22;11200;51.488;6.668;2022-10-16T15:28:44;19.80;99.90
22071;DHT22;11200;51.488;6.668;2022-10-16T15:31:10;19.70;99.90
22071;DHT22;11200;51.488;6.668;2022-10-16T15:33:35;19.70;99.90
22071;DHT22;11200;51.488;6.668;2022-10-16T15:36:01;19.70;99.90
22071;DHT22;11200;51.488;6.668;2022-10-16T15:38:28;19.60;99.90
22071;DHT22;11200;51.488;6.668;2022-10-16T15:40:54;19.60;99.90
22071;DHT22;11200;51.488;6.668;2022-10-16T15:43:19;19.60;99.90
22071;DHT22;11200;51.488;6.668;2022-10-16T15:46:03;19.50;99.90
22071;DHT22;11200;51.488;6.668;2022-10-16T15:48:30;19.50;99.90
22071;DHT22;11200;51.488;6.668;2022-10-16T15:50:56;19.50;99.90
22071;DHT22;11200;51.488;6.668;2022-10-16T15:53:25;19.40;99.90
22071;DHT22;11200;51.488;6.668;2022-10-16T15:55:51;19.40;99.90
22071;DHT22;11200;51.488;6.668;2022-10-16T15:58:16;19.40;99.90
22071;DHT22;11200;51.488;6.668;2022-10-16T16:00:42;19.30;99.90
22071;DHT22;11200;51.488;6.668;2022-10-16T16:03:08;19.20;99.90
22071;DHT22;11200;51.488;6.668;2022-10-16T16:05:37;19.20;99.90
22071;DHT22;11200;51.488;6.668;2022-10-16T16:08:03;19.10;99.90
22071;DHT22;11200;51.488;6.668;2022-10-16T16:10:29;19.10;99.90
22071;DHT22;11200;51.488;6.668;2022-10-16T16:12:55;19.10;99.90
22071;DHT22;11200;51.488;6.668;2022-10-16T16:15:21;19.00;99.90
22071;DHT22;11200;51.488;6.668;2022-10-16T16:17:47;19.00;99.90
22071;DHT22;11200;51.488;6.668;2022-10-16T16:20:13;18.90;99.90
22071;DHT22;11200;51.488;6.668;2022-10-16T16:22:38;18.90;99.90
22071;DHT22;11200;51.488;6.668;2022-10-16T16:25:04;18.90;99.90
22071;DHT22;11200;51.488;6.668;2022-10-16T16:27:30;18.70;99.90
22071;DHT22;11200;51.488;6.668;2022-10-16T16:29:59;18.70;99.90
22071;DHT22;11200;51.488;6.668;2022-10-16T16:32:28;18.70;99.90
22071;DHT22;11200;51.488;6.668;2022-10-16T16:34:57;18.60;99.90
22071;DHT22;11200;51.488;6.668;2022-10-16T16:37:22;18.10;99.90
22071;DHT22;11200;51.488;6.668;2022-10-16T16:39:48;18.50;99.90
22071;DHT22;11200;51.488;6.668;2022-10-16T16:42:16;18.40;99.90
22071;DHT22;11200;51.488;6.668;2022-10-16T16:44:42;18.40;99.90
22071;DHT22;11200;51.488;6.668;2022-10-16T16:47:08;18.40;99.90
22071;DHT22;11200;51.488;6.668;2022-10-16T16:49:34;18.30;99.90
22071;DHT22;11200;51.488;6.668;2022-10-16T16:52:00;18.20;99.90
22071;DHT22;11200;51.488;6.668;2022-10-16T16:54:26;18.20;99.90
22071;DHT22;11200;51.488;6.668;2022-10-16T16:56:51;18.30;99.90
22071;DHT22;11200;51.488;6.668;2022-10-16T16:59:21;18.10;99.90
22071;DHT22;11200;51.488;6.668;2022-10-16T17:01:48;18.00;99.90
22071;DHT22;11200;51.488;6.668;2022-10-16T17:04:16;18.10;99.90
22071;DHT22;11200;51.488;6.668;2022-10-16T17:06:53;17.90;99.90
22071;DHT22;11200;51.488;6.668;2022-10-16T17:09:19;17.90;99.90
22071;DHT22;11200;51.488;6.668;2022-10-16T17:11:44;18.40;99.90
22071;DHT22;11200;51.488;6.668;2022-10-16T17:14:11;17.80;99.90
22071;DHT22;11200;51.488;6.668;2022-10-16T17:16:38;17.80;99.90
22071;DHT22;11200;51.488;6.668;2022-10-16T17:19:06;17.70;99.90
22071;DHT22;11200;51.488;6.668;2022-10-16T17:21:33;17.70;99.90
22071;DHT22;11200;51.488;6.668;2022-10-16T17:23:59;17.60;99.90
22071;DHT22;11200;51.488;6.668;2022-10-16T17:26:28;17.60;99.90
22071;DHT22;11200;51.488;6.668;2022-10-16T17:28:55;17.50;99.90